sensor_id;sensor_type;location;lat;lon;timestamp;pressure;altitude;pressure_sealevel;temperature;humidity
25944;BME280;13742;49.306;8.636;2023-02-03T00:00:36;101803.48;;;7.54;86.12
25944;BME280;13742;49.306;8.636;2023-02-03T00:01:36;101799.38;;;7.54;86.12
25944;BME280;13742;49.306;8.636;2023-02-03T00:02:36;101806.36;;;7.54;86.17
25944;BME280;13742;49.306;8.636;2023-02-03T00:03:36;101803.64;;;7.55;86.16
25944;BME280;13742;49.306;8.636;2023-02-03T00:04:36;101800.41;;;7.54;86.12
25944;BME280;13742;49.306;8.636;2023-02-03T00:05:36;101794.16;;;7.54;86.18
25944;BME280;13742;49.306;8.636;2023-02-03T00:06:36;101791.69;;;7.54;86.18
25944;BME280;13742;49.306;8.636;2023-02-03T00:07:36;101790.91;;;7.54;86.21
25944;BME280;13742;49.306;8.636;2023-02-03T00:08:36;101795.69;;;7.53;86.31
25944;BME280;13742;49.306;8.636;2023-02-03T00:09:36;101799.38;;;7.54;86.36
25944;BME280;13742;49.306;8.636;2023-02-03T00:10:36;101800.45;;;7.53;86.49
25944;BME280;13742;49.306;8.636;2023-02-03T00:11:36;101798.39;;;7.54;86.52
25944;BME280;13742;49.306;8.636;2023-02-03T00:12:36;101799.47;;;7.53;86.52
25944;BME280;13742;49.306;8.636;2023-02-03T00:13:36;101804.56;;;7.53;86.66
25944;BME280;13742;49.306;8.636;2023-02-03T00:14:36;101801.53;;;7.52;86.89
25944;BME280;13742;49.306;8.636;2023-02-03T00:15:36;101808.77;;;7.52;86.92
25944;BME280;13742;49.306;8.636;2023-02-03T00:16:36;101806.38;;;7.53;86.87
25944;BME280;13742;49.306;8.636;2023-02-03T00:17:36;101808.22;;;7.53;86.98
25944;BME280;13742;49.306;8.636;2023-02-03T00:18:36;101806.98;;;7.53;86.95
25944;BME280;13742;49.306;8.636;2023-02-03T00:19:36;101808.72;;;7.52;86.94
25944;BME280;13742;49.306;8.636;2023-02-03T00:20:36;101808.46;;;7.54;87.03
25944;BME280;13742;49.306;8.636;2023-02-03T00:21:36;101809.53;;;7.53;87.05
25944;BME280;13742;49.306;8.636;2023-02-03T00:22:36;101815.29;;;7.53;87.18
25944;BME280;13742;49.306;8.636;2023-02-03T00:23:36;101819.80;;;7.54;87.30
25944;BME280;13742;49.306;8.636;2023-02-03T00:24:36;101810.11;;;7.54;87.27
25944;BME280;13742;49.306;8.636;2023-02-03T00:25:36;101810.77;;;7.54;87.35
25944;BME280;13742;49.306;8.636;2023-02-03T00:26:39;101810.69;;;7.53;87.41
25944;BME280;13742;49.306;8.636;2023-02-03T00:27:36;101811.13;;;7.54;87.43
25944;BME280;13742;49.306;8.636;2023-02-03T00:28:36;101806.53;;;7.53;87.49
25944;BME280;13742;49.306;8.636;2023-02-03T00:29:36;101805.95;;;7.54;87.49
25944;BME280;13742;49.306;8.636;2023-02-03T00:30:36;101809.48;;;7.54;87.57
25944;BME280;13742;49.306;8.636;2023-02-03T00:31:36;101806.45;;;7.54;87.62
25944;BME280;13742;49.306;8.636;2023-02-03T00:32:36;101798.10;;;7.54;87.58
25944;BME280;13742;49.306;8.636;2023-02-03T00:33:37;101804.80;;;7.54;87.61
25944;BME280;13742;49.306;8.636;2023-02-03T00:34:36;101798.39;;;7.54;87.62
25944;BME280;13742;49.306;8.636;2023-02-03T00:35:36;101794.20;;;7.54;87.53
25944;BME280;13742;49.306;8.636;2023-02-03T00:36:36;101801.50;;;7.55;87.51
25944;BME280;13742;49.306;8.636;2023-02-03T00:37:36;101796.78;;;7.54;87.55
25944;BME280;13742;49.306;8.636;2023-02-03T00:38:36;101799.33;;;7.55;87.59
25944;BME280;13742;49.306;8.636;2023-02-03T00:39:36;101796.20;;;7.56;87.53
25944;BME280;13742;49.306;8.636;2023-02-03T00:40:36;101797.17;;;7.56;87.53
25944;BME280;13742;49.306;8.636;2023-02-03T00:41:36;101793.23;;;7.56;87.47
25944;BME280;13742;49.306;8.636;2023-02-03T00:42:36;101798.78;;;7.56;87.47
25944;BME280;13742;49.306;8.636;2023-02-03T00:43:36;101801.49;;;7.56;87.59
25944;BME280;13742;49.306;8.636;2023-02-03T00:44:36;101799.52;;;7.56;87.71
25944;BME280;13742;49.306;8.636;2023-02-03T00:45:36;101800.67;;;7.57;87.65
25944;BME280;13742;49.306;8.636;2023-02-03T00:46:36;101799.03;;;7.56;87.61
25944;BME280;13742;49.306;8.636;2023-02-03T00:47:36;101790.31;;;7.56;87.79
25944;BME280;13742;49.306;8.636;2023-02-03T00:48:36;101787.25;;;7.55;87.90
25944;BME280;13742;49.306;8.636;2023-02-03T00:49:36;101790.06;;;7.56;87.99
25944;BME280;13742;49.306;8.636;2023-02-03T00:50:36;101782.71;;;7.56;88.03
25944;BME280;13742;49.306;8.636;2023-02-03T00:51:36;101783.54;;;7.56;88.07
25944;BME280;13742;49.306;8.636;2023-02-03T00:52:36;101776.02;;;7.56;88.19
25944;BME280;13742;49.306;8.636;2023-02-03T00:53:36;101771.74;;;7.56;88.18
25944;BME280;13742;49.306;8.636;2023-02-03T00:54:36;101776.17;;;7.57;88.21
25944;BME280;13742;49.306;8.636;2023-02-03T00:55:36;101767.91;;;7.57;88.38
25944;BME280;13742;49.306;8.636;2023-02-03T00:56:36;101769.19;;;7.57;88.46
25944;BME280;13742;49.306;8.636;2023-02-03T00:57:36;101767.53;;;7.57;88.53
25944;BME280;13742;49.306;8.636;2023-02-03T00:58:36;101762.11;;;7.58;88.56
25944;BME280;13742;49.306;8.636;2023-02-03T00:59:36;101762.51;;;7.59;88.54
25944;BME280;13742;49.306;8.636;2023-02-03T01:00:36;101761.80;;;7.60;88.59
25944;BME280;13742;49.306;8.636;2023-02-03T01:01:36;101761.35;;;7.59;88.59
25944;BME280;13742;49.306;8.636;2023-02-03T01:02:36;101767.17;;;7.61;88.70
25944;BME280;13742;49.306;8.636;2023-02-03T01:03:36;101765.23;;;7.61;88.60
25944;BME280;13742;49.306;8.636;2023-02-03T01:04:36;101766.25;;;7.63;88.80
25944;BME280;13742;49.306;8.636;2023-02-03T01:05:36;101764.58;;;7.62;88.72
25944;BME280;13742;49.306;8.636;2023-02-03T01:06:36;101763.38;;;7.61;88.72
25944;BME280;13742;49.306;8.636;2023-02-03T01:07:36;101765.89;;;7.62;88.68
25944;BME280;13742;49.306;8.636;2023-02-03T01:08:36;101765.34;;;7.63;88.76
25944;BME280;13742;49.306;8.636;2023-02-03T01:09:36;101770.23;;;7.63;88.75
25944;BME280;13742;49.306;8.636;2023-02-03T01:10:36;101774.17;;;7.63;88.71
25944;BME280;13742;49.306;8.636;2023-02-03T01:11:36;101777.14;;;7.63;88.69
25944;BME280;13742;49.306;8.636;2023-02-03T01:12:36;101781.20;;;7.63;88.54
25944;BME280;13742;49.306;8.636;2023-02-03T01:13:36;101778.47;;;7.65;88.61
25944;BME280;13742;49.306;8.636;2023-02-03T01:14:36;101785.13;;;7.65;88.58
25944;BME280;13742;49.306;8.636;2023-02-03T01:15:36;101783.45;;;7.64;88.67
25944;BME280;13742;49.306;8.636;2023-02-03T01:16:37;101789.86;;;7.64;88.57
25944;BME280;13742;49.306;8.636;2023-02-03T01:17:36;101796.43;;;7.65;88.71
25944;BME280;13742;49.306;8.636;2023-02-03T01:18:36;101794.95;;;7.65;88.69
25944;BME280;13742;49.306;8.636;2023-02-03T01:19:36;101792.69;;;7.65;88.66
25944;BME280;13742;49.306;8.636;2023-02-03T01:20:36;101803.50;;;7.65;88.66
25944;BME280;13742;49.306;8.636;2023-02-03T01:21:36;101803.23;;;7.66;88.68
25944;BME280;13742;49.306;8.636;2023-02-03T01:22:36;101804.20;;;7.66;88.66
25944;BME280;13742;49.306;8.636;2023-02-03T01:23:36;101801.68;;;7.67;88.63
25944;BME280;13742;49.306;8.636;2023-02-03T01:24:36;101803.84;;;7.68;88.62
25944;BME280;13742;49.306;8.636;2023-02-03T01:25:36;101802.69;;;7.68;88.57
25944;BME280;13742;49.306;8.636;2023-02-03T01:26:36;101800.10;;;7.68;88.58
25944;BME280;13742;49.306;8.636;2023-02-03T01:27:36;101798.24;;;7.69;88.60
25944;BME280;13742;49.306;8.636;2023-02-03T01:28:36;101796.34;;;7.69;88.54
25944;BME280;13742;49.306;8.636;2023-02-03T01:29:36;101792.02;;;7.71;88.53
25944;BME280;13742;49.306;8.636;2023-02-03T01:30:36;101788.32;;;7.71;88.42
25944;BME280;13742;49.306;8.636;2023-02-03T01:31:39;101780.22;;;7.70;88.48
25944;BME280;13742;49.306;8.636;2023-02-03T01:32:36;101774.42;;;7.70;88.41
25944;BME280;13742;49.306;8.636;2023-02-03T01:33:36;101769.70;;;7.71;88.33
25944;BME280;13742;49.306;8.636;2023-02-03T01:34:36;101777.83;;;7.71;88.36
25944;BME280;13742;49.306;8.636;2023-02-03T01:35:36;101781.86;;;7.71;88.42
25944;BME280;13742;49.306;8.636;2023-02-03T01:36:36;101774.96;;;7.70;88.43
25944;BME280;13742;49.306;8.636;2023-02-03T01:37:36;101762.02;;;7.71;88.38
25944;BME280;13742;49.306;8.636;2023-02-03T01:38:36;101751.41;;;7.70;88.34
25944;BME280;13742;49.306;8.636;2023-02-03T01:39:36;101743.90;;;7.69;88.44
25944;BME280;13742;49.306;8.636;2023-02-03T01:40:41;101738.19;;;7.70;88.41
25944;BME280;13742;49.306;8.636;2023-02-03T01:41:36;101737.64;;;7.70;88.40
25944;BME280;13742;49.306;8.636;2023-02-03T01:42:36;101731.81;;;7.70;88.43
25944;BME280;13742;49.306;8.636;2023-02-03T01:43:37;101734.03;;;7.70;88.46
25944;BME280;13742;49.306;8.636;2023-02-03T01:45:36;101723.28;;;7.68;88.71
25944;BME280;13742;49.306;8.636;2023-02-03T01:46:37;101720.16;;;7.67;88.72
25944;BME280;13742;49.306;8.636;2023-02-03T01:47:42;101716.14;;;7.68;88.69
25944;BME280;13742;49.306;8.636;2023-02-03T01:48:36;101712.20;;;7.67;88.69
25944;BME280;13742;49.306;8.636;2023-02-03T01:49:36;101718.23;;;7.67;88.82
25944;BME280;13742;49.306;8.636;2023-02-03T01:50:36;101711.44;;;7.65;88.94
25944;BME280;13742;49.306;8.636;2023-02-03T01:51:36;101706.94;;;7.64;89.00
25944;BME280;13742;49.306;8.636;2023-02-03T01:52:36;101712.16;;;7.63;89.00
25944;BME280;13742;49.306;8.636;2023-02-03T01:53:36;101710.56;;;7.63;89.17
25944;BME280;13742;49.306;8.636;2023-02-03T01:54:37;101713.19;;;7.63;89.22
25944;BME280;13742;49.306;8.636;2023-02-03T01:55:40;101702.19;;;7.62;89.32
25944;BME280;13742;49.306;8.636;2023-02-03T01:56:36;101704.08;;;7.62;89.40
25944;BME280;13742;49.306;8.636;2023-02-03T01:57:37;101712.19;;;7.61;89.53
25944;BME280;13742;49.306;8.636;2023-02-03T01:58:37;101714.78;;;7.60;89.56
25944;BME280;13742;49.306;8.636;2023-02-03T01:59:36;101720.36;;;7.61;89.58
25944;BME280;13742;49.306;8.636;2023-02-03T02:00:36;101715.32;;;7.60;89.73
25944;BME280;13742;49.306;8.636;2023-02-03T02:01:36;101716.42;;;7.60;89.75
25944;BME280;13742;49.306;8.636;2023-02-03T02:02:36;101722.01;;;7.61;89.74
25944;BME280;13742;49.306;8.636;2023-02-03T02:03:40;101714.13;;;7.60;89.88
25944;BME280;13742;49.306;8.636;2023-02-03T02:04:38;101709.61;;;7.60;89.93
25944;BME280;13742;49.306;8.636;2023-02-03T02:05:37;101705.52;;;7.59;90.26
25944;BME280;13742;49.306;8.636;2023-02-03T02:06:36;101702.34;;;7.59;90.12
25944;BME280;13742;49.306;8.636;2023-02-03T02:07:36;101695.81;;;7.59;90.20
25944;BME280;13742;49.306;8.636;2023-02-03T02:08:36;101689.50;;;7.58;90.20
25944;BME280;13742;49.306;8.636;2023-02-03T02:09:36;101680.57;;;7.59;90.14
25944;BME280;13742;49.306;8.636;2023-02-03T02:10:36;101666.77;;;7.58;90.24
25944;BME280;13742;49.306;8.636;2023-02-03T02:11:36;101661.47;;;7.58;90.28
25944;BME280;13742;49.306;8.636;2023-02-03T02:12:36;101654.94;;;7.58;90.20
25944;BME280;13742;49.306;8.636;2023-02-03T02:13:36;101670.00;;;7.59;90.30
25944;BME280;13742;49.306;8.636;2023-02-03T02:14:36;101675.59;;;7.59;90.33
25944;BME280;13742;49.306;8.636;2023-02-03T02:16:40;101686.95;;;7.61;90.31
25944;BME280;13742;49.306;8.636;2023-02-03T02:17:44;101686.18;;;7.60;90.23
25944;BME280;13742;49.306;8.636;2023-02-03T02:18:42;101693.50;;;7.60;90.49
25944;BME280;13742;49.306;8.636;2023-02-03T02:20:37;101680.15;;;7.59;90.40
25944;BME280;13742;49.306;8.636;2023-02-03T02:24:42;101680.91;;;7.58;90.63
25944;BME280;13742;49.306;8.636;2023-02-03T02:26:37;101693.24;;;7.57;90.74
25944;BME280;13742;49.306;8.636;2023-02-03T02:30:41;101692.25;;;7.57;90.79
25944;BME280;13742;49.306;8.636;2023-02-03T02:37:37;101695.22;;;7.57;90.82
25944;BME280;13742;49.306;8.636;2023-02-03T02:38:38;101695.70;;;7.58;90.89
25944;BME280;13742;49.306;8.636;2023-02-03T02:39:37;101690.73;;;7.58;90.87
25944;BME280;13742;49.306;8.636;2023-02-03T02:42:47;101681.45;;;7.58;90.90
25944;BME280;13742;49.306;8.636;2023-02-03T02:43:38;101679.48;;;7.57;90.99
25944;BME280;13742;49.306;8.636;2023-02-03T02:44:40;101687.44;;;7.58;91.05
25944;BME280;13742;49.306;8.636;2023-02-03T02:46:36;101681.13;;;7.56;91.10
25944;BME280;13742;49.306;8.636;2023-02-03T02:47:36;101680.14;;;7.56;91.13
25944;BME280;13742;49.306;8.636;2023-02-03T02:48:56;101680.31;;;7.56;91.16
25944;BME280;13742;49.306;8.636;2023-02-03T02:49:41;101686.89;;;7.56;91.25
25944;BME280;13742;49.306;8.636;2023-02-03T02:50:38;101677.53;;;7.55;91.23
25944;BME280;13742;49.306;8.636;2023-02-03T02:51:36;101673.84;;;7.55;91.32
25944;BME280;13742;49.306;8.636;2023-02-03T02:52:36;101679.94;;;7.53;91.38
25944;BME280;13742;49.306;8.636;2023-02-03T02:53:37;101676.02;;;7.54;91.38
25944;BME280;13742;49.306;8.636;2023-02-03T02:54:36;101676.31;;;7.54;91.45
25944;BME280;13742;49.306;8.636;2023-02-03T02:55:36;101675.77;;;7.54;91.60
25944;BME280;13742;49.306;8.636;2023-02-03T02:56:37;101677.88;;;7.53;91.72
25944;BME280;13742;49.306;8.636;2023-02-03T02:57:36;101673.08;;;7.53;91.81
25944;BME280;13742;49.306;8.636;2023-02-03T02:58:36;101676.57;;;7.53;91.85
25944;BME280;13742;49.306;8.636;2023-02-03T02:59:36;101672.75;;;7.53;91.82
25944;BME280;13742;49.306;8.636;2023-02-03T03:00:36;101677.40;;;7.52;92.01
25944;BME280;13742;49.306;8.636;2023-02-03T03:01:36;101681.02;;;7.52;91.89
25944;BME280;13742;49.306;8.636;2023-02-03T03:02:36;101684.64;;;7.52;91.98
25944;BME280;13742;49.306;8.636;2023-02-03T03:03:39;101689.69;;;7.52;91.96
25944;BME280;13742;49.306;8.636;2023-02-03T03:04:36;101687.93;;;7.51;92.02
25944;BME280;13742;49.306;8.636;2023-02-03T03:05:36;101691.14;;;7.51;91.94
25944;BME280;13742;49.306;8.636;2023-02-03T03:06:40;101699.16;;;7.51;92.02
25944;BME280;13742;49.306;8.636;2023-02-03T03:07:39;101707.20;;;7.51;92.08
25944;BME280;13742;49.306;8.636;2023-02-03T03:09:40;101711.36;;;7.50;92.10
25944;BME280;13742;49.306;8.636;2023-02-03T03:10:36;101713.90;;;7.51;92.13
25944;BME280;13742;49.306;8.636;2023-02-03T03:11:38;101714.70;;;7.49;92.29
25944;BME280;13742;49.306;8.636;2023-02-03T03:12:36;101713.22;;;7.49;92.21
25944;BME280;13742;49.306;8.636;2023-02-03T03:13:37;101706.88;;;7.50;91.91
25944;BME280;13742;49.306;8.636;2023-02-03T03:14:36;101708.89;;;7.50;91.93
25944;BME280;13742;49.306;8.636;2023-02-03T03:15:36;101708.78;;;7.50;91.89
25944;BME280;13742;49.306;8.636;2023-02-03T03:16:36;101714.23;;;7.51;92.24
25944;BME280;13742;49.306;8.636;2023-02-03T03:17:38;101714.93;;;7.51;92.16
25944;BME280;13742;49.306;8.636;2023-02-03T03:18:38;101715.80;;;7.50;92.06
25944;BME280;13742;49.306;8.636;2023-02-03T03:19:41;101719.37;;;7.51;92.14
25944;BME280;13742;49.306;8.636;2023-02-03T03:20:36;101723.59;;;7.51;92.07
25944;BME280;13742;49.306;8.636;2023-02-03T03:21:37;101723.19;;;7.50;92.22
25944;BME280;13742;49.306;8.636;2023-02-03T03:22:37;101726.27;;;7.51;92.13
25944;BME280;13742;49.306;8.636;2023-02-03T03:23:38;101732.08;;;7.50;92.28
25944;BME280;13742;49.306;8.636;2023-02-03T03:24:40;101729.38;;;7.49;92.34
25944;BME280;13742;49.306;8.636;2023-02-03T03:25:38;101736.23;;;7.49;92.37
25944;BME280;13742;49.306;8.636;2023-02-03T03:26:39;101734.38;;;7.49;92.51
25944;BME280;13742;49.306;8.636;2023-02-03T03:27:37;101736.61;;;7.49;92.41
25944;BME280;13742;49.306;8.636;2023-02-03T03:29:37;101747.81;;;7.50;92.45
25944;BME280;13742;49.306;8.636;2023-02-03T03:30:36;101748.80;;;7.50;92.35
25944;BME280;13742;49.306;8.636;2023-02-03T03:31:36;101748.63;;;7.50;92.27
25944;BME280;13742;49.306;8.636;2023-02-03T03:32:36;101744.98;;;7.48;92.30
25944;BME280;13742;49.306;8.636;2023-02-03T03:33:36;101749.51;;;7.48;92.44
25944;BME280;13742;49.306;8.636;2023-02-03T03:34:36;101753.29;;;7.48;92.51
25944;BME280;13742;49.306;8.636;2023-02-03T03:35:37;101757.31;;;7.48;92.38
25944;BME280;13742;49.306;8.636;2023-02-03T03:36:39;101764.13;;;7.48;92.30
25944;BME280;13742;49.306;8.636;2023-02-03T03:37:40;101759.70;;;7.48;92.38
25944;BME280;13742;49.306;8.636;2023-02-03T03:38:38;101758.84;;;7.47;92.57
25944;BME280;13742;49.306;8.636;2023-02-03T03:39:40;101756.92;;;7.46;92.51
25944;BME280;13742;49.306;8.636;2023-02-03T03:40:40;101751.67;;;7.46;92.47
25944;BME280;13742;49.306;8.636;2023-02-03T03:42:56;101747.69;;;7.45;92.64
25944;BME280;13742;49.306;8.636;2023-02-03T03:43:37;101741.53;;;7.45;92.62
25944;BME280;13742;49.306;8.636;2023-02-03T03:44:42;101744.28;;;7.45;92.83
25944;BME280;13742;49.306;8.636;2023-02-03T03:46:38;101748.28;;;7.44;92.95
25944;BME280;13742;49.306;8.636;2023-02-03T03:47:41;101745.91;;;7.43;93.00
25944;BME280;13742;49.306;8.636;2023-02-03T03:48:36;101751.61;;;7.44;93.08
25944;BME280;13742;49.306;8.636;2023-02-03T03:49:36;101749.98;;;7.42;93.35
25944;BME280;13742;49.306;8.636;2023-02-03T03:50:37;101746.30;;;7.42;93.30
25944;BME280;13742;49.306;8.636;2023-02-03T03:51:38;101746.96;;;7.40;93.50
25944;BME280;13742;49.306;8.636;2023-02-03T03:52:36;101748.39;;;7.40;93.73
25944;BME280;13742;49.306;8.636;2023-02-03T03:53:37;101745.27;;;7.41;93.60
25944;BME280;13742;49.306;8.636;2023-02-03T03:54:36;101742.64;;;7.40;93.73
25944;BME280;13742;49.306;8.636;2023-02-03T03:55:35;101739.11;;;7.41;93.69
25944;BME280;13742;49.306;8.636;2023-02-03T03:56:40;101743.30;;;7.40;93.74
25944;BME280;13742;49.306;8.636;2023-02-03T03:57:37;101741.20;;;7.40;93.97
25944;BME280;13742;49.306;8.636;2023-02-03T03:58:36;101738.67;;;7.40;93.97
25944;BME280;13742;49.306;8.636;2023-02-03T03:59:36;101739.91;;;7.39;94.28
25944;BME280;13742;49.306;8.636;2023-02-03T04:00:36;101734.69;;;7.38;94.68
25944;BME280;13742;49.306;8.636;2023-02-03T04:01:36;101738.03;;;7.38;94.94
25944;BME280;13742;49.306;8.636;2023-02-03T04:02:36;101730.94;;;7.37;95.17
25944;BME280;13742;49.306;8.636;2023-02-03T04:04:36;101726.56;;;7.35;95.43
25944;BME280;13742;49.306;8.636;2023-02-03T04:05:36;101724.36;;;7.33;95.81
25944;BME280;13742;49.306;8.636;2023-02-03T04:06:38;101730.73;;;7.32;96.16
25944;BME280;13742;49.306;8.636;2023-02-03T04:07:36;101735.38;;;7.31;96.72
25944;BME280;13742;49.306;8.636;2023-02-03T04:08:35;101735.59;;;7.30;97.03
25944;BME280;13742;49.306;8.636;2023-02-03T04:09:36;101735.48;;;7.29;97.34
25944;BME280;13742;49.306;8.636;2023-02-03T04:10:39;101738.16;;;7.29;97.41
25944;BME280;13742;49.306;8.636;2023-02-03T04:11:41;101739.14;;;7.29;97.47
25944;BME280;13742;49.306;8.636;2023-02-03T04:12:35;101737.83;;;7.28;97.73
25944;BME280;13742;49.306;8.636;2023-02-03T04:13:35;101733.89;;;7.28;98.02
25944;BME280;13742;49.306;8.636;2023-02-03T04:14:39;101730.49;;;7.27;98.29
25944;BME280;13742;49.306;8.636;2023-02-03T04:15:35;101728.78;;;7.26;98.38
25944;BME280;13742;49.306;8.636;2023-02-03T04:16:35;101728.13;;;7.25;98.70
25944;BME280;13742;49.306;8.636;2023-02-03T04:17:35;101734.09;;;7.24;98.82
25944;BME280;13742;49.306;8.636;2023-02-03T04:18:35;101733.77;;;7.24;99.18
25944;BME280;13742;49.306;8.636;2023-02-03T04:19:35;101732.88;;;7.23;99.19
25944;BME280;13742;49.306;8.636;2023-02-03T04:20:36;101734.90;;;7.22;99.38
25944;BME280;13742;49.306;8.636;2023-02-03T04:21:35;101733.09;;;7.21;99.33
25944;BME280;13742;49.306;8.636;2023-02-03T04:22:35;101740.49;;;7.21;99.58
25944;BME280;13742;49.306;8.636;2023-02-03T04:23:35;101743.38;;;7.20;99.61
25944;BME280;13742;49.306;8.636;2023-02-03T04:24:35;101747.66;;;7.19;99.87
25944;BME280;13742;49.306;8.636;2023-02-03T04:25:35;101750.98;;;7.19;100.00
25944;BME280;13742;49.306;8.636;2023-02-03T04:26:35;101746.13;;;7.19;100.00
25944;BME280;13742;49.306;8.636;2023-02-03T04:27:35;101745.30;;;7.17;100.00
25944;BME280;13742;49.306;8.636;2023-02-03T04:28:35;101742.39;;;7.16;100.00
25944;BME280;13742;49.306;8.636;2023-02-03T04:29:35;101741.50;;;7.15;100.00
25944;BME280;13742;49.306;8.636;2023-02-03T04:30:35;101741.01;;;7.15;100.00
25944;BME280;13742;49.306;8.636;2023-02-03T04:31:37;101747.94;;;7.15;100.00
25944;BME280;13742;49.306;8.636;2023-02-03T04:32:35;101744.25;;;7.14;100.00
25944;BME280;13742;49.306;8.636;2023-02-03T04:33:35;101741.29;;;7.15;100.00
25944;BME280;13742;49.306;8.636;2023-02-03T04:34:35;101731.53;;;7.13;100.00
25944;BME280;13742;49.306;8.636;2023-02-03T04:35:36;101734.94;;;7.13;100.00
25944;BME280;13742;49.306;8.636;2023-02-03T04:36:36;101737.41;;;7.12;100.00
25944;BME280;13742;49.306;8.636;2023-02-03T04:37:36;101738.44;;;7.13;100.00
25944;BME280;13742;49.306;8.636;2023-02-03T04:38:35;101736.84;;;7.13;100.00
25944;BME280;13742;49.306;8.636;2023-02-03T04:39:36;101729.20;;;7.12;100.00
25944;BME280;13742;49.306;8.636;2023-02-03T04:40:35;101726.48;;;7.13;100.00
25944;BME280;13742;49.306;8.636;2023-02-03T04:41:36;101730.48;;;7.12;100.00
25944;BME280;13742;49.306;8.636;2023-02-03T04:42:36;101733.18;;;7.12;100.00
25944;BME280;13742;49.306;8.636;2023-02-03T04:43:36;101729.95;;;7.11;100.00
25944;BME280;13742;49.306;8.636;2023-02-03T04:44:35;101737.08;;;7.12;100.00
25944;BME280;13742;49.306;8.636;2023-02-03T04:45:36;101735.73;;;7.12;100.00
25944;BME280;13742;49.306;8.636;2023-02-03T04:46:35;101743.20;;;7.12;100.00
25944;BME280;13742;49.306;8.636;2023-02-03T04:47:36;101743.78;;;7.12;100.00
25944;BME280;13742;49.306;8.636;2023-02-03T04:48:35;101752.45;;;7.11;100.00
25944;BME280;13742;49.306;8.636;2023-02-03T04:49:35;101752.71;;;7.10;100.00
25944;BME280;13742;49.306;8.636;2023-02-03T04:50:35;101745.39;;;7.11;100.00
25944;BME280;13742;49.306;8.636;2023-02-03T04:51:35;101750.73;;;7.11;100.00
25944;BME280;13742;49.306;8.636;2023-02-03T04:52:35;101750.41;;;7.11;100.00
25944;BME280;13742;49.306;8.636;2023-02-03T04:53:35;101754.34;;;7.11;100.00
25944;BME280;13742;49.306;8.636;2023-02-03T04:54:35;101747.89;;;7.11;100.00
25944;BME280;13742;49.306;8.636;2023-02-03T04:55:36;101744.49;;;7.11;100.00
25944;BME280;13742;49.306;8.636;2023-02-03T04:56:36;101744.16;;;7.11;100.00
25944;BME280;13742;49.306;8.636;2023-02-03T04:57:35;101742.16;;;7.10;100.00
25944;BME280;13742;49.306;8.636;2023-02-03T04:58:36;101738.38;;;7.10;100.00
25944;BME280;13742;49.306;8.636;2023-02-03T04:59:35;101739.74;;;7.09;100.00
25944;BME280;13742;49.306;8.636;2023-02-03T05:00:35;101741.70;;;7.10;100.00
25944;BME280;13742;49.306;8.636;2023-02-03T05:01:35;101736.73;;;7.10;100.00
25944;BME280;13742;49.306;8.636;2023-02-03T05:02:35;101736.50;;;7.10;100.00
25944;BME280;13742;49.306;8.636;2023-02-03T05:03:36;101729.63;;;7.10;100.00
25944;BME280;13742;49.306;8.636;2023-02-03T05:04:35;101730.45;;;7.10;100.00
25944;BME280;13742;49.306;8.636;2023-02-03T05:05:35;101723.59;;;7.09;100.00
25944;BME280;13742;49.306;8.636;2023-02-03T05:06:35;101727.25;;;7.09;100.00
25944;BME280;13742;49.306;8.636;2023-02-03T05:07:35;101732.13;;;7.10;100.00
25944;BME280;13742;49.306;8.636;2023-02-03T05:08:35;101728.52;;;7.10;100.00
25944;BME280;13742;49.306;8.636;2023-02-03T05:09:35;101725.36;;;7.10;99.98
25944;BME280;13742;49.306;8.636;2023-02-03T05:10:35;101725.77;;;7.11;100.00
25944;BME280;13742;49.306;8.636;2023-02-03T05:11:35;101714.08;;;7.09;100.00
25944;BME280;13742;49.306;8.636;2023-02-03T05:12:35;101720.41;;;7.09;100.00
25944;BME280;13742;49.306;8.636;2023-02-03T05:13:35;101720.53;;;7.08;100.00
25944;BME280;13742;49.306;8.636;2023-02-03T05:14:35;101724.27;;;7.09;100.00
25944;BME280;13742;49.306;8.636;2023-02-03T05:15:35;101730.83;;;7.09;100.00
25944;BME280;13742;49.306;8.636;2023-02-03T05:16:35;101727.08;;;7.07;100.00
25944;BME280;13742;49.306;8.636;2023-02-03T05:17:38;101729.98;;;7.08;100.00
25944;BME280;13742;49.306;8.636;2023-02-03T05:18:35;101728.80;;;7.07;100.00
25944;BME280;13742;49.306;8.636;2023-02-03T05:19:35;101723.09;;;7.07;100.00
25944;BME280;13742;49.306;8.636;2023-02-03T05:20:35;101725.13;;;7.08;100.00
25944;BME280;13742;49.306;8.636;2023-02-03T05:21:35;101724.61;;;7.07;100.00
25944;BME280;13742;49.306;8.636;2023-02-03T05:22:35;101720.95;;;7.06;100.00
25944;BME280;13742;49.306;8.636;2023-02-03T05:23:35;101723.41;;;7.08;100.00
25944;BME280;13742;49.306;8.636;2023-02-03T05:24:35;101719.92;;;7.07;100.00
25944;BME280;13742;49.306;8.636;2023-02-03T05:25:35;101718.81;;;7.08;100.00
25944;BME280;13742;49.306;8.636;2023-02-03T05:26:35;101721.14;;;7.09;100.00
25944;BME280;13742;49.306;8.636;2023-02-03T05:27:39;101719.00;;;7.09;100.00
25944;BME280;13742;49.306;8.636;2023-02-03T05:28:35;101721.02;;;7.08;100.00
25944;BME280;13742;49.306;8.636;2023-02-03T05:29:35;101723.28;;;7.09;100.00
25944;BME280;13742;49.306;8.636;2023-02-03T05:30:35;101720.29;;;7.08;100.00
25944;BME280;13742;49.306;8.636;2023-02-03T05:31:36;101719.30;;;7.08;100.00
25944;BME280;13742;49.306;8.636;2023-02-03T05:32:35;101716.06;;;7.07;100.00
25944;BME280;13742;49.306;8.636;2023-02-03T05:33:35;101723.65;;;7.08;100.00
25944;BME280;13742;49.306;8.636;2023-02-03T05:34:35;101721.28;;;7.08;100.00
25944;BME280;13742;49.306;8.636;2023-02-03T05:35:35;101723.16;;;7.08;100.00
25944;BME280;13742;49.306;8.636;2023-02-03T05:36:35;101725.88;;;7.06;100.00
25944;BME280;13742;49.306;8.636;2023-02-03T05:37:35;101716.57;;;7.05;100.00
25944;BME280;13742;49.306;8.636;2023-02-03T05:38:35;101716.29;;;7.05;100.00
25944;BME280;13742;49.306;8.636;2023-02-03T05:39:35;101717.44;;;7.05;100.00
25944;BME280;13742;49.306;8.636;2023-02-03T05:40:41;101718.38;;;7.05;100.00